sensor_id;sensor_type;location;lat;lon;timestamp;pressure;altitude;pressure_sealevel;temperature;humidity
64683;BME280;51107;47.652;19.016;2023-04-21T00:01:12;99888.78;;;10.57;70.73
64683;BME280;51107;47.652;19.016;2023-04-21T00:03:42;99886.34;;;10.56;70.65
64683;BME280;51107;47.652;19.016;2023-04-21T00:06:11;99888.78;;;10.57;71.98
64683;BME280;51107;47.652;19.016;2023-04-21T00:08:39;99879.63;;;10.53;71.88
64683;BME280;51107;47.652;19.016;2023-04-21T00:11:08;99875.69;;;10.49;72.70
64683;BME280;51107;47.652;19.016;2023-04-21T00:13:36;99876.94;;;10.45;73.04
64683;BME280;51107;47.652;19.016;2023-04-21T00:16:06;99871.59;;;10.46;73.47
64683;BME280;51107;47.652;19.016;2023-04-21T00:18:35;99881.63;;;10.41;71.04
64683;BME280;51107;47.652;19.016;2023-04-21T00:21:04;99877.00;;;10.35;72.55
64683;BME280;51107;47.652;19.016;2023-04-21T00:23:32;99873.69;;;10.33;72.78
64683;BME280;51107;47.652;19.016;2023-04-21T00:26:00;99870.56;;;10.29;72.80
64683;BME280;51107;47.652;19.016;2023-04-21T00:28:30;99875.94;;;10.28;73.62
64683;BME280;51107;47.652;19.016;2023-04-21T00:30:58;99874.28;;;10.27;74.06
64683;BME280;51107;47.652;19.016;2023-04-21T00:33:27;99865.28;;;10.21;74.30
64683;BME280;51107;47.652;19.016;2023-04-21T00:35:55;99870.03;;;10.26;73.63
64683;BME280;51107;47.652;19.016;2023-04-21T00:38:27;99861.19;;;10.18;73.45
64683;BME280;51107;47.652;19.016;2023-04-21T00:40:55;99859.81;;;10.14;72.96
64683;BME280;51107;47.652;19.016;2023-04-21T00:43:24;99861.75;;;10.12;73.10
64683;BME280;51107;47.652;19.016;2023-04-21T00:45:54;99862.56;;;10.13;72.87
64683;BME280;51107;47.652;19.016;2023-04-21T00:48:23;99856.16;;;10.07;72.88
64683;BME280;51107;47.652;19.016;2023-04-21T00:50:51;99862.63;;;10.03;73.40
64683;BME280;51107;47.652;19.016;2023-04-21T00:53:20;99859.88;;;10.05;72.61
64683;BME280;51107;47.652;19.016;2023-04-21T00:55:49;99860.75;;;9.95;73.59
64683;BME280;51107;47.652;19.016;2023-04-21T00:58:18;99860.50;;;9.89;72.12
64683;BME280;51107;47.652;19.016;2023-04-21T01:00:47;99852.38;;;9.92;73.44
64683;BME280;51107;47.652;19.016;2023-04-21T01:03:15;99857.53;;;9.83;71.83
64683;BME280;51107;47.652;19.016;2023-04-21T01:05:44;99860.69;;;9.77;72.92
64683;BME280;51107;47.652;19.016;2023-04-21T01:08:14;99858.09;;;9.77;73.42
64683;BME280;51107;47.652;19.016;2023-04-21T01:10:42;99856.28;;;9.78;73.69
64683;BME280;51107;47.652;19.016;2023-04-21T01:13:12;99856.16;;;9.79;73.75
64683;BME280;51107;47.652;19.016;2023-04-21T01:15:40;99854.94;;;9.74;72.49
64683;BME280;51107;47.652;19.016;2023-04-21T01:18:09;99853.19;;;9.74;73.59
64683;BME280;51107;47.652;19.016;2023-04-21T01:20:38;99851.81;;;9.70;73.86
64683;BME280;51107;47.652;19.016;2023-04-21T01:23:06;99851.28;;;9.66;73.18
64683;BME280;51107;47.652;19.016;2023-04-21T01:25:35;99854.16;;;9.63;70.60
64683;BME280;51107;47.652;19.016;2023-04-21T01:28:04;99853.75;;;9.58;71.50
64683;BME280;51107;47.652;19.016;2023-04-21T01:30:32;99851.31;;;9.57;70.98
64683;BME280;51107;47.652;19.016;2023-04-21T01:33:01;99855.16;;;9.52;71.39
64683;BME280;51107;47.652;19.016;2023-04-21T01:35:29;99844.19;;;9.59;72.04
64683;BME280;51107;47.652;19.016;2023-04-21T01:37:58;99855.69;;;9.56;72.43
64683;BME280;51107;47.652;19.016;2023-04-21T01:40:26;99843.50;;;9.57;71.72
64683;BME280;51107;47.652;19.016;2023-04-21T01:42:54;99857.31;;;9.57;72.42
64683;BME280;51107;47.652;19.016;2023-04-21T01:45:26;99844.19;;;9.59;72.02
64683;BME280;51107;47.652;19.016;2023-04-21T01:47:54;99844.75;;;9.52;71.38
64683;BME280;51107;47.652;19.016;2023-04-21T01:50:23;99851.47;;;9.55;70.78
64683;BME280;51107;47.652;19.016;2023-04-21T01:52:52;99839.16;;;9.47;69.68
64683;BME280;51107;47.652;19.016;2023-04-21T01:55:20;99849.28;;;9.50;70.23
64683;BME280;51107;47.652;19.016;2023-04-21T01:57:49;99850.25;;;9.49;69.70
64683;BME280;51107;47.652;19.016;2023-04-21T02:00:17;99842.31;;;9.41;71.49
64683;BME280;51107;47.652;19.016;2023-04-21T02:02:47;99841.87;;;9.56;70.59
64683;BME280;51107;47.652;19.016;2023-04-21T02:05:16;99854.88;;;9.56;70.66
64683;BME280;51107;47.652;19.016;2023-04-21T02:07:44;99850.34;;;9.58;70.73
64683;BME280;51107;47.652;19.016;2023-04-21T02:10:14;99848.84;;;9.55;71.93
64683;BME280;51107;47.652;19.016;2023-04-21T02:12:43;99851.31;;;9.57;71.70
64683;BME280;51107;47.652;19.016;2023-04-21T02:15:11;99852.97;;;9.58;71.49
64683;BME280;51107;47.652;19.016;2023-04-21T02:17:40;99851.16;;;9.58;71.38
64683;BME280;51107;47.652;19.016;2023-04-21T02:20:10;99839.00;;;9.59;68.94
64683;BME280;51107;47.652;19.016;2023-04-21T02:22:41;99850.22;;;9.59;68.15
64683;BME280;51107;47.652;19.016;2023-04-21T02:25:10;99849.63;;;9.65;69.74
64683;BME280;51107;47.652;19.016;2023-04-21T02:27:38;99852.38;;;9.64;69.44
64683;BME280;51107;47.652;19.016;2023-04-21T02:30:12;99854.88;;;9.56;69.94
64683;BME280;51107;47.652;19.016;2023-04-21T02:32:42;99850.06;;;9.61;67.94
64683;BME280;51107;47.652;19.016;2023-04-21T02:35:11;99853.91;;;9.57;69.26
64683;BME280;51107;47.652;19.016;2023-04-21T02:37:39;99859.50;;;9.62;69.24
64683;BME280;51107;47.652;19.016;2023-04-21T02:40:08;99852.66;;;9.61;68.95
64683;BME280;51107;47.652;19.016;2023-04-21T02:42:37;99857.47;;;9.56;68.77
64683;BME280;51107;47.652;19.016;2023-04-21T02:45:06;99841.87;;;9.56;68.30
64683;BME280;51107;47.652;19.016;2023-04-21T02:47:35;99855.00;;;9.54;67.01
64683;BME280;51107;47.652;19.016;2023-04-21T02:50:05;99852.25;;;9.56;68.95
64683;BME280;51107;47.652;19.016;2023-04-21T02:52:36;99859.41;;;9.54;68.92
64683;BME280;51107;47.652;19.016;2023-04-21T02:55:05;99853.00;;;9.48;68.28
64683;BME280;51107;47.652;19.016;2023-04-21T02:57:34;99856.53;;;9.47;68.54
64683;BME280;51107;47.652;19.016;2023-04-21T03:00:02;99856.09;;;9.51;68.33
64683;BME280;51107;47.652;19.016;2023-04-21T03:02:32;99860.06;;;9.56;68.37
64683;BME280;51107;47.652;19.016;2023-04-21T03:05:00;99863.34;;;9.58;68.79
64683;BME280;51107;47.652;19.016;2023-04-21T03:07:30;99866.38;;;9.53;69.09
64683;BME280;51107;47.652;19.016;2023-04-21T03:09:59;99865.00;;;9.49;66.18
64683;BME280;51107;47.652;19.016;2023-04-21T03:12:27;99856.41;;;9.48;67.75
64683;BME280;51107;47.652;19.016;2023-04-21T03:14:55;99867.19;;;9.54;68.87
64683;BME280;51107;47.652;19.016;2023-04-21T03:17:24;99869.97;;;9.42;68.13
64683;BME280;51107;47.652;19.016;2023-04-21T03:19:53;99873.53;;;9.41;68.47
64683;BME280;51107;47.652;19.016;2023-04-21T03:22:21;99870.50;;;9.46;68.09
64683;BME280;51107;47.652;19.016;2023-04-21T03:24:49;99870.78;;;9.43;69.49
64683;BME280;51107;47.652;19.016;2023-04-21T03:27:18;99867.09;;;9.45;69.47
64683;BME280;51107;47.652;19.016;2023-04-21T03:29:46;99872.16;;;9.37;68.95
64683;BME280;51107;47.652;19.016;2023-04-21T03:32:14;99874.06;;;9.35;69.82
64683;BME280;51107;47.652;19.016;2023-04-21T03:34:43;99874.66;;;9.29;69.77
64683;BME280;51107;47.652;19.016;2023-04-21T03:37:11;99875.19;;;9.23;68.37
64683;BME280;51107;47.652;19.016;2023-04-21T03:39:39;99880.53;;;9.21;69.38
64683;BME280;51107;47.652;19.016;2023-04-21T03:42:08;99878.63;;;9.23;69.19
64683;BME280;51107;47.652;19.016;2023-04-21T03:44:36;99876.84;;;9.24;69.49
64683;BME280;51107;47.652;19.016;2023-04-21T03:47:05;99885.34;;;9.26;69.40
64683;BME280;51107;47.652;19.016;2023-04-21T03:49:33;99885.03;;;9.29;69.57
64683;BME280;51107;47.652;19.016;2023-04-21T03:52:02;99880.66;;;9.29;67.45
64683;BME280;51107;47.652;19.016;2023-04-21T03:54:30;99882.59;;;9.27;68.53
64683;BME280;51107;47.652;19.016;2023-04-21T03:56:59;99886.44;;;9.23;68.13
64683;BME280;51107;47.652;19.016;2023-04-21T03:59:27;99889.97;;;9.32;68.89
64683;BME280;51107;47.652;19.016;2023-04-21T04:01:55;99885.16;;;9.47;68.33
64683;BME280;51107;47.652;19.016;2023-04-21T04:04:24;99889.78;;;9.43;68.04
64683;BME280;51107;47.652;19.016;2023-04-21T04:06:53;99885.94;;;9.57;67.12
64683;BME280;51107;47.652;19.016;2023-04-21T04:09:21;99893.69;;;9.77;65.90
64683;BME280;51107;47.652;19.016;2023-04-21T04:11:50;99895.97;;;9.90;65.33
64683;BME280;51107;47.652;19.016;2023-04-21T04:14:18;99895.00;;;9.91;66.38
64683;BME280;51107;47.652;19.016;2023-04-21T04:16:47;99895.16;;;9.89;67.16
64683;BME280;51107;47.652;19.016;2023-04-21T04:19:15;99908.69;;;9.93;65.81
64683;BME280;51107;47.652;19.016;2023-04-21T04:21:43;99900.97;;;10.01;65.84
64683;BME280;51107;47.652;19.016;2023-04-21T04:24:15;99902.87;;;10.09;65.56
64683;BME280;51107;47.652;19.016;2023-04-21T04:26:43;99910.13;;;10.05;64.69
64683;BME280;51107;47.652;19.016;2023-04-21T04:29:12;99903.28;;;10.14;65.76
64683;BME280;51107;47.652;19.016;2023-04-21T04:31:41;99921.59;;;10.22;64.35
64683;BME280;51107;47.652;19.016;2023-04-21T04:34:09;99915.66;;;10.30;63.57
64683;BME280;51107;47.652;19.016;2023-04-21T04:36:38;99923.47;;;10.58;63.72
64683;BME280;51107;47.652;19.016;2023-04-21T04:39:07;99912.97;;;10.67;62.97
64683;BME280;51107;47.652;19.016;2023-04-21T04:41:37;99917.91;;;10.70;61.83
64683;BME280;51107;47.652;19.016;2023-04-21T04:44:05;99916.91;;;10.71;63.48
64683;BME280;51107;47.652;19.016;2023-04-21T04:46:35;99916.34;;;10.78;63.11
64683;BME280;51107;47.652;19.016;2023-04-21T04:49:04;99928.50;;;10.87;62.66
64683;BME280;51107;47.652;19.016;2023-04-21T04:51:32;99923.22;;;10.97;62.05
64683;BME280;51107;47.652;19.016;2023-04-21T04:54:01;99926.13;;;10.94;62.20
64683;BME280;51107;47.652;19.016;2023-04-21T04:56:29;99924.00;;;10.97;64.75
64683;BME280;51107;47.652;19.016;2023-04-21T04:58:57;99933.63;;;10.97;65.09
64683;BME280;51107;47.652;19.016;2023-04-21T05:01:26;99927.31;;;10.99;64.41
64683;BME280;51107;47.652;19.016;2023-04-21T05:03:57;99934.00;;;11.02;63.98
64683;BME280;51107;47.652;19.016;2023-04-21T05:06:27;99931.91;;;11.05;63.57
64683;BME280;51107;47.652;19.016;2023-04-21T05:08:55;99932.44;;;11.09;61.91
64683;BME280;51107;47.652;19.016;2023-04-21T05:11:24;99921.03;;;11.28;59.55
64683;BME280;51107;47.652;19.016;2023-04-21T05:13:52;99931.31;;;11.30;61.55
64683;BME280;51107;47.652;19.016;2023-04-21T05:16:21;99924.66;;;11.35;60.35
64683;BME280;51107;47.652;19.016;2023-04-21T05:18:49;99919.50;;;11.44;59.52
64683;BME280;51107;47.652;19.016;2023-04-21T05:21:24;99928.72;;;11.56;59.72
64683;BME280;51107;47.652;19.016;2023-04-21T05:23:57;99917.16;;;11.59;59.59
64683;BME280;51107;47.652;19.016;2023-04-21T05:26:26;99922.72;;;11.64;59.69
64683;BME280;51107;47.652;19.016;2023-04-21T05:28:56;99929.12;;;11.69;58.94
64683;BME280;51107;47.652;19.016;2023-04-21T05:31:25;99926.22;;;11.72;58.58
64683;BME280;51107;47.652;19.016;2023-04-21T05:33:54;99925.25;;;11.73;58.91
64683;BME280;51107;47.652;19.016;2023-04-21T05:36:22;99922.81;;;11.80;58.89
64683;BME280;51107;47.652;19.016;2023-04-21T05:38:52;99917.34;;;11.92;56.52
64683;BME280;51107;47.652;19.016;2023-04-21T05:41:20;99921.97;;;11.98;56.11
64683;BME280;51107;47.652;19.016;2023-04-21T05:43:49;99928.66;;;12.00;55.89
64683;BME280;51107;47.652;19.016;2023-04-21T05:46:18;99928.81;;;11.99;56.55
64683;BME280;51107;47.652;19.016;2023-04-21T05:48:46;99925.91;;;12.02;56.03
64683;BME280;51107;47.652;19.016;2023-04-21T05:51:15;99923.81;;;12.05;57.43
64683;BME280;51107;47.652;19.016;2023-04-21T05:53:44;99927.09;;;12.16;56.87
64683;BME280;51107;47.652;19.016;2023-04-21T05:56:12;99925.84;;;12.28;55.64
64683;BME280;51107;47.652;19.016;2023-04-21T05:58:41;99928.28;;;12.30;56.35
64683;BME280;51107;47.652;19.016;2023-04-21T06:01:10;99928.81;;;12.33;55.46
64683;BME280;51107;47.652;19.016;2023-04-21T06:03:40;99926.72;;;12.37;54.91
64683;BME280;51107;47.652;19.016;2023-04-21T06:06:08;99924.25;;;12.44;53.51
64683;BME280;51107;47.652;19.016;2023-04-21T06:08:38;99929.19;;;12.55;55.70
64683;BME280;51107;47.652;19.016;2023-04-21T06:11:07;99928.41;;;12.71;56.50
64683;BME280;51107;47.652;19.016;2023-04-21T06:13:35;99925.19;;;12.85;55.97
64683;BME280;51107;47.652;19.016;2023-04-21T06:16:06;99929.41;;;12.86;53.67
64683;BME280;51107;47.652;19.016;2023-04-21T06:18:35;99915.19;;;12.89;53.79
64683;BME280;51107;47.652;19.016;2023-04-21T06:21:03;99922.56;;;12.94;53.66
64683;BME280;51107;47.652;19.016;2023-04-21T06:23:32;99919.47;;;13.06;53.10
64683;BME280;51107;47.652;19.016;2023-04-21T06:26:04;99923.06;;;13.05;52.21
64683;BME280;51107;47.652;19.016;2023-04-21T06:28:35;99918.00;;;13.12;53.62
64683;BME280;51107;47.652;19.016;2023-04-21T06:31:04;99925.50;;;13.15;53.09
64683;BME280;51107;47.652;19.016;2023-04-21T06:33:36;99921.28;;;13.14;52.46
64683;BME280;51107;47.652;19.016;2023-04-21T06:36:04;99931.72;;;13.31;53.35
64683;BME280;51107;47.652;19.016;2023-04-21T06:38:33;99922.72;;;13.33;51.03
64683;BME280;51107;47.652;19.016;2023-04-21T06:41:02;99914.72;;;13.35;51.15
64683;BME280;51107;47.652;19.016;2023-04-21T06:43:31;99923.22;;;13.29;51.56
64683;BME280;51107;47.652;19.016;2023-04-21T06:45:59;99923.22;;;13.53;52.57
64683;BME280;51107;47.652;19.016;2023-04-21T06:48:28;99915.69;;;13.58;53.64
64683;BME280;51107;47.652;19.016;2023-04-21T06:50:57;99915.81;;;13.82;52.92
64683;BME280;51107;47.652;19.016;2023-04-21T06:53:25;99925.72;;;14.03;51.50
64683;BME280;51107;47.652;19.016;2023-04-21T06:55:54;99924.28;;;13.92;50.57
64683;BME280;51107;47.652;19.016;2023-04-21T06:58:22;99927.22;;;13.97;51.59
64683;BME280;51107;47.652;19.016;2023-04-21T07:00:50;99915.56;;;14.08;52.11
64683;BME280;51107;47.652;19.016;2023-04-21T07:03:19;99920.41;;;14.19;50.50
64683;BME280;51107;47.652;19.016;2023-04-21T07:05:48;99916.09;;;14.35;50.21
64683;BME280;51107;47.652;19.016;2023-04-21T07:08:16;99916.56;;;14.38;51.39
64683;BME280;51107;47.652;19.016;2023-04-21T07:10:44;99921.97;;;14.68;48.85
64683;BME280;51107;47.652;19.016;2023-04-21T07:13:13;99910.69;;;14.68;48.62
64683;BME280;51107;47.652;19.016;2023-04-21T07:15:42;99919.22;;;14.70;48.57
64683;BME280;51107;47.652;19.016;2023-04-21T07:18:11;99909.47;;;15.02;49.04
64683;BME280;51107;47.652;19.016;2023-04-21T07:20:39;99924.09;;;14.96;48.70
64683;BME280;51107;47.652;19.016;2023-04-21T07:23:07;99916.19;;;15.04;46.12
64683;BME280;51107;47.652;19.016;2023-04-21T07:25:36;99918.19;;;15.17;48.22
64683;BME280;51107;47.652;19.016;2023-04-21T07:28:04;99917.25;;;15.48;48.18
64683;BME280;51107;47.652;19.016;2023-04-21T07:30:33;99911.41;;;15.76;49.34
64683;BME280;51107;47.652;19.016;2023-04-21T07:33:02;99907.41;;;16.10;48.59
64683;BME280;51107;47.652;19.016;2023-04-21T07:35:30;99913.66;;;16.24;45.48
64683;BME280;51107;47.652;19.016;2023-04-21T07:37:59;99910.50;;;16.50;45.49
64683;BME280;51107;47.652;19.016;2023-04-21T07:40:27;99901.78;;;16.86;44.78
64683;BME280;51107;47.652;19.016;2023-04-21T07:42:55;99909.31;;;16.89;43.89
64683;BME280;51107;47.652;19.016;2023-04-21T07:45:24;99904.66;;;17.13;45.15
64683;BME280;51107;47.652;19.016;2023-04-21T07:47:53;99912.69;;;17.61;43.82
64683;BME280;51107;47.652;19.016;2023-04-21T07:50:22;99913.12;;;17.65;42.32
64683;BME280;51107;47.652;19.016;2023-04-21T07:52:50;99906.22;;;17.92;43.67
64683;BME280;51107;47.652;19.016;2023-04-21T07:55:18;99915.47;;;18.23;41.89
64683;BME280;51107;47.652;19.016;2023-04-21T07:57:47;99911.03;;;18.37;40.61
64683;BME280;51107;47.652;19.016;2023-04-21T08:00:16;99919.47;;;18.81;43.01
64683;BME280;51107;47.652;19.016;2023-04-21T08:02:44;99910.78;;;18.94;42.46
64683;BME280;51107;47.652;19.016;2023-04-21T08:05:13;99915.84;;;19.09;40.80
64683;BME280;51107;47.652;19.016;2023-04-21T08:07:42;99915.63;;;19.57;40.48
64683;BME280;51107;47.652;19.016;2023-04-21T08:10:12;99915.00;;;19.68;39.66
64683;BME280;51107;47.652;19.016;2023-04-21T08:12:40;99913.91;;;20.10;39.44
64683;BME280;51107;47.652;19.016;2023-04-21T08:15:09;99906.72;;;20.24;40.08
64683;BME280;51107;47.652;19.016;2023-04-21T08:17:39;99908.66;;;20.42;36.44
64683;BME280;51107;47.652;19.016;2023-04-21T08:20:08;99902.41;;;20.68;38.58
64683;BME280;51107;47.652;19.016;2023-04-21T08:22:39;99910.72;;;20.33;36.48
64683;BME280;51107;47.652;19.016;2023-04-21T08:25:08;99905.88;;;20.68;38.07
64683;BME280;51107;47.652;19.016;2023-04-21T08:27:37;99904.16;;;20.42;37.64
64683;BME280;51107;47.652;19.016;2023-04-21T08:30:06;99903.97;;;21.08;37.85
64683;BME280;51107;47.652;19.016;2023-04-21T08:32:35;99904.84;;;20.69;36.31
64683;BME280;51107;47.652;19.016;2023-04-21T08:35:04;99908.91;;;20.33;36.74
64683;BME280;51107;47.652;19.016;2023-04-21T08:37:35;99901.53;;;20.35;35.73
64683;BME280;51107;47.652;19.016;2023-04-21T08:40:05;99902.06;;;20.90;35.37
64683;BME280;51107;47.652;19.016;2023-04-21T08:42:34;99908.16;;;20.58;36.27
64683;BME280;51107;47.652;19.016;2023-04-21T08:45:04;99902.37;;;21.00;38.22
64683;BME280;51107;47.652;19.016;2023-04-21T08:47:33;99895.91;;;21.65;38.25
64683;BME280;51107;47.652;19.016;2023-04-21T08:50:05;99902.59;;;21.67;34.65
64683;BME280;51107;47.652;19.016;2023-04-21T08:52:34;99898.91;;;22.05;34.26
64683;BME280;51107;47.652;19.016;2023-04-21T08:55:05;99899.03;;;21.11;34.99
64683;BME280;51107;47.652;19.016;2023-04-21T08:57:34;99891.72;;;21.57;34.87
64683;BME280;51107;47.652;19.016;2023-04-21T09:00:03;99885.81;;;21.55;35.27
64683;BME280;51107;47.652;19.016;2023-04-21T09:02:52;99887.94;;;20.70;34.88
64683;BME280;51107;47.652;19.016;2023-04-21T09:05:29;99893.44;;;19.85;37.12
64683;BME280;51107;47.652;19.016;2023-04-21T09:08:11;99886.78;;;19.49;36.83
64683;BME280;51107;47.652;19.016;2023-04-21T09:10:50;99893.34;;;18.93;37.56
64683;BME280;51107;47.652;19.016;2023-04-21T09:13:37;99891.66;;;19.45;37.04
64683;BME280;51107;47.652;19.016;2023-04-21T09:16:14;99892.06;;;20.21;37.98
64683;BME280;51107;47.652;19.016;2023-04-21T09:18:45;99884.00;;;20.80;36.81
64683;BME280;51107;47.652;19.016;2023-04-21T09:21:16;99875.50;;;20.96;37.92
64683;BME280;51107;47.652;19.016;2023-04-21T09:23:47;99884.16;;;20.85;35.68
64683;BME280;51107;47.652;19.016;2023-04-21T09:26:18;99883.53;;;21.33;35.08
64683;BME280;51107;47.652;19.016;2023-04-21T09:28:48;99876.25;;;21.47;34.95
64683;BME280;51107;47.652;19.016;2023-04-21T09:31:19;99875.53;;;22.14;37.14
64683;BME280;51107;47.652;19.016;2023-04-21T09:33:53;99882.34;;;21.73;34.06
64683;BME280;51107;47.652;19.016;2023-04-21T09:36:28;99879.03;;;21.78;33.84
64683;BME280;51107;47.652;19.016;2023-04-21T09:38:59;99867.47;;;22.21;33.82
64683;BME280;51107;47.652;19.016;2023-04-21T09:41:31;99866.53;;;22.15;33.22
64683;BME280;51107;47.652;19.016;2023-04-21T09:44:00;99862.72;;;21.37;33.36
64683;BME280;51107;47.652;19.016;2023-04-21T09:46:35;99857.09;;;22.19;32.94
64683;BME280;51107;47.652;19.016;2023-04-21T09:49:05;99861.38;;;21.71;31.65
64683;BME280;51107;47.652;19.016;2023-04-21T09:51:33;99858.50;;;21.73;34.52
64683;BME280;51107;47.652;19.016;2023-04-21T09:54:12;99859.41;;;21.42;31.60
64683;BME280;51107;47.652;19.016;2023-04-21T09:57:03;99844.50;;;21.66;32.95
64683;BME280;51107;47.652;19.016;2023-04-21T09:59:35;99850.59;;;21.48;35.11
64683;BME280;51107;47.652;19.016;2023-04-21T10:02:05;99850.81;;;21.46;35.63
64683;BME280;51107;47.652;19.016;2023-04-21T10:04:35;99844.28;;;21.67;35.03
64683;BME280;51107;47.652;19.016;2023-04-21T10:07:05;99841.41;;;22.48;34.70
64683;BME280;51107;47.652;19.016;2023-04-21T10:09:39;99834.50;;;22.59;32.74
64683;BME280;51107;47.652;19.016;2023-04-21T10:12:08;99844.22;;;22.77;32.93
64683;BME280;51107;47.652;19.016;2023-04-21T10:14:37;99837.91;;;21.50;33.62
64683;BME280;51107;47.652;19.016;2023-04-21T10:17:07;99840.59;;;21.68;34.23
64683;BME280;51107;47.652;19.016;2023-04-21T10:19:47;99836.44;;;22.21;34.82
64683;BME280;51107;47.652;19.016;2023-04-21T10:22:26;99837.94;;;22.17;32.78
64683;BME280;51107;47.652;19.016;2023-04-21T10:24:57;99839.31;;;21.89;33.23
64683;BME280;51107;47.652;19.016;2023-04-21T10:27:41;99835.72;;;21.28;33.66
64683;BME280;51107;47.652;19.016;2023-04-21T10:30:17;99826.50;;;21.31;35.44
64683;BME280;51107;47.652;19.016;2023-04-21T10:32:45;99819.66;;;21.42;32.76
64683;BME280;51107;47.652;19.016;2023-04-21T10:35:23;99826.31;;;20.57;35.87
64683;BME280;51107;47.652;19.016;2023-04-21T10:37:51;99822.88;;;21.25;36.75
64683;BME280;51107;47.652;19.016;2023-04-21T10:43:42;99827.00;;;21.02;36.33
64683;BME280;51107;47.652;19.016;2023-04-21T10:46:36;99809.78;;;20.61;35.83
64683;BME280;51107;47.652;19.016;2023-04-21T10:49:13;99814.69;;;20.32;36.02
64683;BME280;51107;47.652;19.016;2023-04-21T10:54:41;99816.03;;;19.58;38.69
64683;BME280;51107;47.652;19.016;2023-04-21T10:57:14;99813.66;;;19.36;37.61
64683;BME280;51107;47.652;19.016;2023-04-21T10:59:45;99808.81;;;19.20;38.16
64683;BME280;51107;47.652;19.016;2023-04-21T11:02:15;99803.75;;;18.98;37.33
64683;BME280;51107;47.652;19.016;2023-04-21T11:04:44;99806.00;;;18.94;38.77
64683;BME280;51107;47.652;19.016;2023-04-21T11:07:18;99808.44;;;18.89;40.48
64683;BME280;51107;47.652;19.016;2023-04-21T11:09:47;99815.75;;;19.00;39.65
64683;BME280;51107;47.652;19.016;2023-04-21T11:12:32;99807.19;;;19.18;38.96
64683;BME280;51107;47.652;19.016;2023-04-21T11:15:06;99805.72;;;19.43;38.42
64683;BME280;51107;47.652;19.016;2023-04-21T11:17:36;99797.44;;;19.19;38.12
64683;BME280;51107;47.652;19.016;2023-04-21T11:20:07;99804.97;;;19.15;37.91
64683;BME280;51107;47.652;19.016;2023-04-21T11:22:36;99801.53;;;18.68;36.80
64683;BME280;51107;47.652;19.016;2023-04-21T11:25:16;99804.56;;;18.65;38.14
64683;BME280;51107;47.652;19.016;2023-04-21T11:27:55;99807.44;;;18.90;40.88
64683;BME280;51107;47.652;19.016;2023-04-21T11:30:30;99802.75;;;18.92;41.78
64683;BME280;51107;47.652;19.016;2023-04-21T11:33:02;99799.28;;;18.78;38.79
64683;BME280;51107;47.652;19.016;2023-04-21T11:35:31;99799.50;;;18.83;41.63
64683;BME280;51107;47.652;19.016;2023-04-21T11:38:04;99788.94;;;18.77;37.72
64683;BME280;51107;47.652;19.016;2023-04-21T11:40:47;99791.38;;;18.58;40.45
64683;BME280;51107;47.652;19.016;2023-04-21T11:43:16;99792.41;;;18.64;40.16
64683;BME280;51107;47.652;19.016;2023-04-21T11:45:48;99793.81;;;18.53;38.16
64683;BME280;51107;47.652;19.016;2023-04-21T11:48:17;99786.88;;;18.39;38.40
64683;BME280;51107;47.652;19.016;2023-04-21T11:50:50;99791.56;;;18.30;39.75
64683;BME280;51107;47.652;19.016;2023-04-21T11:53:18;99789.75;;;18.44;41.45
64683;BME280;51107;47.652;19.016;2023-04-21T11:55:47;99787.91;;;18.24;38.63
64683;BME280;51107;47.652;19.016;2023-04-21T11:58:15;99777.72;;;18.08;38.17
64683;BME280;51107;47.652;19.016;2023-04-21T12:00:45;99782.38;;;17.99;38.68
64683;BME280;51107;47.652;19.016;2023-04-21T12:03:14;99784.22;;;18.12;39.60
64683;BME280;51107;47.652;19.016;2023-04-21T12:05:43;99786.88;;;18.25;42.10
64683;BME280;51107;47.652;19.016;2023-04-21T12:08:14;99782.44;;;18.32;38.86
64683;BME280;51107;47.652;19.016;2023-04-21T12:10:44;99788.13;;;18.29;38.99
64683;BME280;51107;47.652;19.016;2023-04-21T12:13:23;99784.62;;;18.09;38.00
64683;BME280;51107;47.652;19.016;2023-04-21T12:15:52;99775.53;;;18.31;39.88
64683;BME280;51107;47.652;19.016;2023-04-21T12:18:20;99771.69;;;18.34;39.32
64683;BME280;51107;47.652;19.016;2023-04-21T12:20:50;99770.69;;;18.42;39.76
64683;BME280;51107;47.652;19.016;2023-04-21T12:23:19;99774.53;;;18.53;40.01
64683;BME280;51107;47.652;19.016;2023-04-21T12:25:47;99776.56;;;18.50;40.03
64683;BME280;51107;47.652;19.016;2023-04-21T12:28:17;99773.69;;;18.19;39.25
64683;BME280;51107;47.652;19.016;2023-04-21T12:30:45;99772.09;;;18.31;41.11
64683;BME280;51107;47.652;19.016;2023-04-21T12:33:13;99771.91;;;18.46;41.89
64683;BME280;51107;47.652;19.016;2023-04-21T12:35:42;99767.44;;;18.53;42.58
64683;BME280;51107;47.652;19.016;2023-04-21T12:38:10;99771.50;;;18.62;40.71
64683;BME280;51107;47.652;19.016;2023-04-21T12:40:38;99769.88;;;18.55;40.93
64683;BME280;51107;47.652;19.016;2023-04-21T12:43:06;99769.44;;;18.51;41.12
64683;BME280;51107;47.652;19.016;2023-04-21T12:45:35;99765.37;;;18.48;39.20
64683;BME280;51107;47.652;19.016;2023-04-21T12:48:04;99769.25;;;18.46;40.38
64683;BME280;51107;47.652;19.016;2023-04-21T12:50:34;99764.56;;;18.41;38.69
64683;BME280;51107;47.652;19.016;2023-04-21T12:53:02;99763.56;;;18.36;39.89
64683;BME280;51107;47.652;19.016;2023-04-21T12:55:33;99758.91;;;18.58;38.96
64683;BME280;51107;47.652;19.016;2023-04-21T12:58:03;99760.75;;;18.57;37.69
64683;BME280;51107;47.652;19.016;2023-04-21T13:00:32;99752.00;;;18.37;40.44
64683;BME280;51107;47.652;19.016;2023-04-21T13:03:03;99759.72;;;18.38;41.13
64683;BME280;51107;47.652;19.016;2023-04-21T13:05:31;99760.13;;;18.28;41.14
64683;BME280;51107;47.652;19.016;2023-04-21T13:07:59;99754.44;;;18.38;38.42
64683;BME280;51107;47.652;19.016;2023-04-21T13:10:28;99751.19;;;18.16;39.44
64683;BME280;51107;47.652;19.016;2023-04-21T13:12:56;99753.41;;;18.19;40.04